Time;durP1;ratioP1;P1;durP2;ratioP2;P2;SDS_P1;SDS_P2;PMS_P1;PMS_P2;Temp;Humidity;BMP_temperature;BMP_pressure;BME280_temperature;BME280_humidity;BME280_pressure;Samples;Min_cycle;Max_cycle;Signal;HPM_P1;HPM_P2
2021/08/30 00:00:05;;;;;;;34.45;21.52;;;15.20;99.90;;;;;;4998368;28;20025;-69
2021/08/30 00:02:31;;;;;;;36.88;20.95;;;15.20;99.90;;;;;;5000779;28;20053;-69
2021/08/30 00:04:56;;;;;;;36.75;21.63;;;15.20;99.90;;;;;;4999677;28;20158;-69
2021/08/30 00:07:22;;;;;;;38.03;21.63;;;15.20;99.90;;;;;;4992670;28;20026;-69
2021/08/30 00:09:48;;;;;;;41.60;21.98;;;15.20;99.90;;;;;;4999769;28;20037;-69
2021/08/30 00:12:13;;;;;;;34.00;21.42;;;15.10;99.90;;;;;;4998884;28;20082;-69
2021/08/30 00:14:39;;;;;;;40.65;21.48;;;15.10;99.90;;;;;;4999873;28;20496;-69
2021/08/30 00:17:05;;;;;;;42.33;22.08;;;15.10;99.90;;;;;;4994189;28;20415;-69
2021/08/30 00:19:34;;;;;;;33.83;21.42;;;15.10;99.90;;;;;;4999463;28;20029;-69
2021/08/30 00:22:02;;;;;;;39.08;22.00;;;15.10;99.90;;;;;;4997241;28;20030;-69
2021/08/30 00:24:27;;;;;;;39.22;22.45;;;15.20;99.90;;;;;;4998662;28;20033;-69
2021/08/30 00:26:54;;;;;;;37.55;22.65;;;15.20;99.90;;;;;;4998073;28;20161;-69
2021/08/30 00:29:26;;;;;;;39.20;20.95;;;15.10;99.90;;;;;;4995062;28;20045;-70
2021/08/30 00:31:56;;;;;;;39.35;20.13;;;15.10;99.90;;;;;;4996935;28;20026;-70
2021/08/30 00:34:22;;;;;;;36.67;20.48;;;15.10;99.90;;;;;;5000940;28;20029;-69
2021/08/30 00:36:48;;;;;;;33.22;19.85;;;15.10;99.90;;;;;;4996039;28;20026;-69
2021/08/30 00:39:21;;;;;;;38.45;20.70;;;15.10;99.90;;;;;;4996676;28;20039;-70
2021/08/30 00:41:49;;;;;;;32.95;20.42;;;15.10;99.90;;;;;;4998645;28;20337;-70
2021/08/30 00:44:15;;;;;;;33.95;21.13;;;15.10;99.90;;;;;;4998981;28;20098;-69
2021/08/30 00:46:40;;;;;;;32.38;21.48;;;15.20;99.90;;;;;;4999564;28;20271;-70
2021/08/30 00:49:06;;;;;;;38.70;20.42;;;15.10;99.90;;;;;;4998593;28;20109;-70
2021/08/30 00:51:32;;;;;;;34.80;20.88;;;15.10;99.90;;;;;;4999792;28;20057;-69
2021/08/30 00:53:58;;;;;;;34.25;20.77;;;15.10;99.90;;;;;;4999247;28;20122;-69
2021/08/30 00:56:28;;;;;;;34.20;22.23;;;15.10;99.90;;;;;;5013325;28;20736;-70
2021/08/30 00:58:53;;;;;;;40.83;22.67;;;15.20;99.90;;;;;;4998539;28;20098;-70
2021/08/30 01:01:19;;;;;;;35.63;20.83;;;15.20;99.90;;;;;;4999720;28;20144;-69
2021/08/30 01:03:45;;;;;;;35.60;21.13;;;15.20;99.90;;;;;;5000421;28;20125;-69
2021/08/30 01:06:22;;;;;;;35.53;21.58;;;15.10;99.90;;;;;;4999028;28;20449;-69
2021/08/30 01:09:00;;;;;;;32.70;20.42;;;15.20;99.90;;;;;;4999195;28;20048;-69
2021/08/30 01:11:30;;;;;;;37.22;21.35;;;15.10;99.90;;;;;;4998130;28;20046;-70
2021/08/30 01:14:00;;;;;;;39.38;22.17;;;15.20;99.90;;;;;;4996501;28;20491;-70
2021/08/30 01:16:27;;;;;;;34.40;21.55;;;15.10;99.90;;;;;;4999539;28;20042;-70
2021/08/30 01:18:54;;;;;;;34.65;21.77;;;15.10;99.90;;;;;;4999780;28;20394;-69
2021/08/30 01:21:27;;;;;;;32.83;20.73;;;15.10;99.90;;;;;;4998844;28;20053;-71
2021/08/30 01:23:58;;;;;;;40.92;20.38;;;15.10;99.90;;;;;;4999931;28;20417;-70
2021/08/30 01:26:27;;;;;;;;;;;15.10;99.90;;;;;;4997716;28;20495;-70
2021/08/30 01:29:14;;;;;;;32.22;20.63;;;15.20;99.90;;;;;;4997615;28;19980;-70
2021/08/30 01:32:02;;;;;;;39.22;21.25;;;15.10;99.90;;;;;;5000602;28;20025;-70
2021/08/30 01:34:30;;;;;;;36.15;21.05;;;15.10;99.90;;;;;;4999012;28;20088;-70
2021/08/30 01:36:57;;;;;;;33.40;21.30;;;15.10;99.90;;;;;;4998093;28;20045;-70
2021/08/30 01:39:30;;;;;;;33.22;20.20;;;15.10;99.90;;;;;;4999544;28;20381;-69
2021/08/30 01:41:57;;;;;;;35.88;20.92;;;15.10;99.90;;;;;;5000643;28;20521;-70
2021/08/30 01:44:24;;;;;;;36.75;21.83;;;15.20;99.90;;;;;;5000308;28;20152;-70
2021/08/30 01:46:52;;;;;;;37.03;21.10;;;15.20;99.90;;;;;;4997800;28;20104;-70
2021/08/30 01:49:19;;;;;;;33.50;20.23;;;15.20;99.90;;;;;;4997179;28;20449;-70
2021/08/30 01:51:47;;;;;;;28.55;20.20;;;15.20;99.90;;;;;;5000649;28;20025;-70
2021/08/30 01:54:14;;;;;;;36.35;21.35;;;15.20;99.90;;;;;;5000273;28;20405;-69
2021/08/30 01:56:45;;;;;;;34.03;19.83;;;15.10;99.90;;;;;;4998137;28;20060;-69
2021/08/30 02:01:57;;;;;;;32.83;19.75;;;15.10;99.90;;;;;;4999138;28;20168;-70
2021/08/30 02:04:22;;;;;;;34.15;19.73;;;15.10;99.90;;;;;;5001349;28;20037;-70
2021/08/30 02:06:48;;;;;;;35.67;20.42;;;15.10;99.90;;;;;;4997525;28;20749;-70
2021/08/30 02:09:14;;;;;;;35.03;20.15;;;15.10;99.90;;;;;;4998483;28;20037;-69
2021/08/30 02:11:39;;;;;;;34.47;20.17;;;15.10;99.90;;;;;;4996855;28;20511;-70
2021/08/30 02:14:08;;;;;;;34.60;20.48;;;15.10;99.90;;;;;;4999949;28;20038;-70
2021/08/30 02:16:36;;;;;;;32.75;19.88;;;15.10;99.90;;;;;;4995716;28;20130;-70
2021/08/30 02:19:18;;;;;;;36.22;20.55;;;15.10;99.90;;;;;;4996486;28;20438;-70
2021/08/30 02:21:50;;;;;;;36.80;20.65;;;15.10;99.90;;;;;;4999289;28;20037;-70
2021/08/30 02:24:44;;;;;;;36.35;21.00;;;15.00;99.90;;;;;;4995479;28;20517;-70
2021/08/30 02:27:33;;;;;;;35.50;20.80;;;15.00;99.90;;;;;;4999468;28;20167;-69
2021/08/30 02:30:19;;;;;;;36.80;19.58;;;14.90;99.90;;;;;;4998990;28;20026;-70
2021/08/30 02:32:48;;;;;;;38.58;21.02;;;14.80;99.90;;;;;;4996177;28;20117;-70
2021/08/30 02:35:17;;;;;;;39.33;21.60;;;14.70;99.90;;;;;;4996226;28;20049;-70
2021/08/30 02:37:43;;;;;;;35.65;21.92;;;14.70;99.90;;;;;;4993145;28;20022;-70
2021/08/30 02:40:12;;;;;;;40.70;23.17;;;14.70;99.90;;;;;;4998582;28;20053;-70
2021/08/30 02:42:39;;;;;;;51.38;24.65;;;14.80;99.90;;;;;;4999941;28;20033;-70
2021/08/30 02:45:07;;;;;;;56.55;24.33;;;14.80;99.90;;;;;;4997478;28;20022;-70
2021/08/30 02:47:35;;;;;;;50.88;25.35;;;14.90;99.90;;;;;;4998032;28;20120;-70
2021/08/30 02:50:02;;;;;;;49.90;25.15;;;14.90;99.90;;;;;;4998647;28;20080;-69
2021/08/30 02:52:29;;;;;;;61.92;25.90;;;14.90;99.90;;;;;;4999881;28;20245;-70
2021/08/30 02:54:55;;;;;;;44.78;23.65;;;15.00;99.90;;;;;;5001208;28;20080;-70
2021/08/30 02:57:23;;;;;;;43.30;23.67;;;15.00;99.90;;;;;;4998247;28;20049;-70
2021/08/30 02:59:51;;;;;;;53.15;24.70;;;14.90;99.90;;;;;;4999611;28;20022;-70
2021/08/30 03:02:19;;;;;;;48.15;24.55;;;14.90;99.90;;;;;;4999188;28;20140;-70
2021/08/30 03:04:44;;;;;;;46.75;24.45;;;14.90;99.90;;;;;;4997394;28;20014;-69
2021/08/30 03:07:11;;;;;;;42.00;22.35;;;15.00;99.90;;;;;;4997991;28;20026;-69
2021/08/30 03:09:37;;;;;;;42.63;21.77;;;14.90;99.90;;;;;;4994371;28;20030;-70
2021/08/30 03:12:04;;;;;;;38.38;21.45;;;14.80;99.90;;;;;;4998979;28;20362;-69
2021/08/30 03:14:30;;;;;;;42.33;21.23;;;14.70;99.90;;;;;;5000665;28;20034;-69
2021/08/30 03:17:01;;;;;;;48.78;23.70;;;14.60;99.90;;;;;;4997944;28;20041;-70
2021/08/30 03:19:27;;;;;;;;;;;14.60;99.90;;;;;;4994878;28;20505;-70
2021/08/30 03:21:54;;;;;;;54.67;23.20;;;14.60;99.90;;;;;;4999413;28;19956;-70
2021/08/30 03:24:21;;;;;;;57.28;25.10;;;14.60;99.90;;;;;;5000539;28;20575;-70
2021/08/30 03:26:49;;;;;;;58.90;25.35;;;14.60;99.90;;;;;;4998048;28;20034;-70
2021/08/30 03:29:16;;;;;;;53.92;26.65;;;14.70;99.90;;;;;;4999364;28;20201;-70
2021/08/30 03:31:41;;;;;;;57.70;26.35;;;14.70;99.90;;;;;;5000303;28;20022;-69
2021/08/30 03:34:08;;;;;;;66.15;27.85;;;14.70;99.90;;;;;;4998716;28;20041;-70
2021/08/30 03:36:34;;;;;;;58.40;27.88;;;14.70;99.90;;;;;;4999059;28;20447;-71
2021/08/30 03:39:00;;;;;;;62.92;26.95;;;14.80;99.90;;;;;;4994337;28;20030;-70
2021/08/30 03:41:27;;;;;;;58.63;27.23;;;14.80;99.90;;;;;;4993224;28;20124;-70
2021/08/30 03:43:54;;;;;;;62.35;25.92;;;14.70;99.90;;;;;;4998825;28;20014;-70
2021/08/30 03:46:20;;;;;;;60.38;27.85;;;14.70;99.90;;;;;;4998436;28;20044;-70
2021/08/30 03:48:47;;;;;;;55.33;26.23;;;14.70;99.90;;;;;;4997732;28;20461;-70
2021/08/30 03:51:14;;;;;;;55.03;26.70;;;14.60;99.90;;;;;;4999320;28;20041;-70
2021/08/30 03:53:41;;;;;;;63.80;28.02;;;14.60;99.90;;;;;;5000424;28;20049;-70
2021/08/30 03:56:08;;;;;;;71.05;29.52;;;14.60;99.90;;;;;;5000568;28;20092;-70
2021/08/30 03:58:37;;;;;;;61.58;28.20;;;14.70;99.90;;;;;;4999844;28;20049;-71
2021/08/30 04:01:05;;;;;;;71.30;28.50;;;14.70;99.90;;;;;;5002347;28;20365;-70
2021/08/30 04:03:35;;;;;;;59.15;27.02;;;14.70;99.90;;;;;;5002548;28;20101;-70
2021/08/30 04:06:02;;;;;;;69.20;28.05;;;14.70;99.90;;;;;;5001427;28;20481;-71
2021/08/30 04:08:30;;;;;;;67.70;27.83;;;14.70;99.90;;;;;;5002113;28;20052;-70
2021/08/30 04:10:55;;;;;;;65.05;28.05;;;14.70;99.90;;;;;;5000842;28;20037;-70
2021/08/30 04:13:22;;;;;;;63.95;28.10;;;14.70;99.90;;;;;;4999336;28;20049;-70
2021/08/30 04:15:47;;;;;;;64.30;26.27;;;14.80;99.90;;;;;;4999066;28;20049;-70
2021/08/30 04:18:13;;;;;;;63.75;28.10;;;14.80;99.90;;;;;;4999358;28;20069;-70
2021/08/30 04:20:38;;;;;;;64.38;28.02;;;14.80;99.90;;;;;;4999445;28;20104;-65
2021/08/30 04:23:04;;;;;;;65.03;28.33;;;14.70;99.90;;;;;;4992923;28;20033;-64
2021/08/30 04:25:30;;;;;;;60.17;25.30;;;14.70;99.90;;;;;;5000276;28;20467;-65
2021/08/30 04:27:55;;;;;;;64.20;27.58;;;14.70;99.90;;;;;;5001259;28;20100;-65
2021/08/30 04:30:21;;;;;;;54.75;26.98;;;14.70;99.90;;;;;;4997862;28;20113;-66
2021/08/30 04:32:46;;;;;;;57.20;26.30;;;14.70;99.90;;;;;;4999751;28;20106;-65
2021/08/30 04:35:13;;;;;;;56.25;25.77;;;14.70;99.90;;;;;;5000731;28;22079;-66
2021/08/30 04:37:39;;;;;;;60.67;25.65;;;14.70;99.90;;;;;;4999100;28;20030;-65
2021/08/30 04:40:06;;;;;;;68.97;26.80;;;14.70;99.90;;;;;;5000193;28;20056;-66
2021/08/30 04:42:31;;;;;;;62.13;25.95;;;14.60;99.90;;;;;;4999776;28;20088;-66
2021/08/30 04:44:57;;;;;;;60.03;26.13;;;14.60;99.90;;;;;;4996199;28;20034;-65
2021/08/30 04:47:23;;;;;;;62.33;26.55;;;14.70;99.90;;;;;;5000345;28;20057;-66
2021/08/30 04:49:48;;;;;;;59.35;26.75;;;14.70;99.90;;;;;;5000991;28;20022;-65
2021/08/30 04:52:14;;;;;;;56.53;25.42;;;14.70;99.90;;;;;;5001267;28;20026;-66
2021/08/30 04:54:40;;;;;;;60.10;27.02;;;14.70;99.90;;;;;;5001139;28;20018;-66
2021/08/30 04:57:05;;;;;;;49.58;26.15;;;14.70;99.90;;;;;;4998187;28;20366;-65
2021/08/30 04:59:31;;;;;;;47.22;25.55;;;14.80;99.90;;;;;;4997080;28;21776;-66
2021/08/30 05:01:56;;;;;;;59.28;26.88;;;14.70;99.90;;;;;;4997679;28;20026;-66
2021/08/30 05:04:22;;;;;;;52.17;26.35;;;14.80;99.90;;;;;;4998350;28;20034;-66
2021/08/30 05:06:48;;;;;;;54.63;26.83;;;14.80;99.90;;;;;;4999105;28;20037;-66
2021/08/30 05:09:13;;;;;;;49.97;26.02;;;14.90;99.90;;;;;;5000351;28;20521;-66
2021/08/30 05:11:39;;;;;;;45.03;24.85;;;14.90;99.90;;;;;;5000889;28;20045;-66
2021/08/30 05:14:05;;;;;;;49.58;24.95;;;14.90;99.90;;;;;;5000221;28;20304;-66
2021/08/30 05:16:31;;;;;;;42.80;24.00;;;14.90;99.90;;;;;;4999045;28;20037;-66
2021/08/30 05:18:56;;;;;;;58.25;24.70;;;14.90;99.90;;;;;;5000225;28;20143;-66
2021/08/30 05:21:22;;;;;;;46.35;24.17;;;14.90;99.90;;;;;;4998250;28;20041;-66
2021/08/30 05:23:47;;;;;;;46.70;24.45;;;15.00;99.90;;;;;;5000128;28;20033;-65
2021/08/30 05:26:13;;;;;;;48.33;22.83;;;15.00;99.90;;;;;;4998176;28;20512;-65
2021/08/30 05:28:39;;;;;;;45.92;24.13;;;15.00;99.90;;;;;;4999321;28;20037;-65
2021/08/30 05:31:04;;;;;;;50.25;23.67;;;15.00;99.90;;;;;;4999999;28;20480;-65
2021/08/30 05:33:30;;;;;;;38.88;22.27;;;15.00;99.90;;;;;;4996891;28;20808;-68
2021/08/30 05:35:56;;;;;;;37.13;21.75;;;15.00;99.90;;;;;;4999582;28;20033;-68
2021/08/30 05:38:22;;;;;;;37.65;21.08;;;15.00;99.90;;;;;;5002138;28;20034;-69
2021/08/30 05:40:47;;;;;;;38.55;20.95;;;15.00;99.90;;;;;;4999157;28;20022;-68
2021/08/30 05:43:13;;;;;;;34.13;21.10;;;15.10;99.90;;;;;;4997047;28;20074;-69
2021/08/30 05:45:39;;;;;;;33.20;20.52;;;15.00;99.90;;;;;;4995369;28;20026;-68
2021/08/30 05:48:05;;;;;;;36.63;21.13;;;15.00;99.90;;;;;;4996005;28;20370;-68
2021/08/30 05:50:30;;;;;;;37.47;20.83;;;15.00;99.90;;;;;;4993173;28;20062;-68
2021/08/30 05:52:56;;;;;;;33.63;20.75;;;15.10;99.90;;;;;;4996195;28;20192;-69
2021/08/30 05:55:22;;;;;;;30.15;19.10;;;15.10;99.90;;;;;;4993794;28;20034;-68
2021/08/30 05:57:48;;;;;;;31.33;18.88;;;15.10;99.90;;;;;;4995206;28;20052;-68
2021/08/30 06:00:14;;;;;;;35.22;19.27;;;15.20;99.90;;;;;;4998060;28;20034;-68
2021/08/30 06:02:40;;;;;;;30.33;18.48;;;15.30;99.90;;;;;;5000213;28;20375;-68
2021/08/30 06:05:06;;;;;;;26.73;17.85;;;15.30;99.90;;;;;;4993176;28;20029;-68
2021/08/30 06:07:32;;;;;;;26.73;16.85;;;15.40;99.90;;;;;;4989102;28;20237;-69
2021/08/30 06:09:58;;;;;;;28.80;18.25;;;15.40;99.90;;;;;;4990032;28;20112;-69
2021/08/30 06:12:23;;;;;;;26.52;16.90;;;15.40;99.90;;;;;;4991355;28;20386;-68
2021/08/30 06:14:49;;;;;;;28.42;17.40;;;15.50;99.90;;;;;;4992256;28;20479;-69
2021/08/30 06:17:15;;;;;;;26.05;16.10;;;15.50;99.90;;;;;;4987356;28;20509;-68
2021/08/30 06:19:42;;;;;;;24.52;15.82;;;15.60;99.90;;;;;;4989205;28;20195;-69
2021/08/30 06:22:09;;;;;;;21.73;15.23;;;15.70;99.90;;;;;;4986803;28;20060;-69
2021/08/30 06:24:40;;;;;;;23.65;16.17;;;15.70;99.80;;;;;;4991015;28;20045;-69
2021/08/30 06:27:07;;;;;;;23.17;14.98;;;15.70;99.60;;;;;;4987576;28;20137;-69
2021/08/30 06:29:32;;;;;;;23.33;15.23;;;15.70;99.60;;;;;;4987969;28;20042;-69
2021/08/30 06:31:58;;;;;;;21.58;15.15;;;15.80;99.60;;;;;;4986989;28;20127;-68
2021/08/30 06:34:26;;;;;;;23.10;14.50;;;15.80;99.40;;;;;;4992372;28;20081;-69
2021/08/30 06:36:52;;;;;;;20.88;14.25;;;15.90;99.30;;;;;;4995859;28;20049;-69
2021/08/30 06:39:18;;;;;;;21.58;14.13;;;15.90;99.00;;;;;;4994704;28;20057;-68
2021/08/30 06:41:44;;;;;;;19.90;13.52;;;16.10;99.10;;;;;;4995453;28;20061;-68
2021/08/30 06:44:09;;;;;;;20.65;13.57;;;16.10;98.80;;;;;;4993974;28;22822;-69
2021/08/30 06:46:35;;;;;;;20.30;13.13;;;16.20;98.80;;;;;;4990902;28;20030;-68
2021/08/30 06:49:01;;;;;;;18.27;12.57;;;16.20;98.60;;;;;;5002993;28;20052;-68
2021/08/30 06:51:27;;;;;;;22.20;12.93;;;16.20;98.10;;;;;;5015986;28;20412;-69
2021/08/30 06:53:53;;;;;;;17.98;11.60;;;16.20;98.10;;;;;;5016281;28;20106;-68
2021/08/30 06:56:18;;;;;;;18.95;11.80;;;16.30;97.50;;;;;;5016626;28;20033;-68
2021/08/30 06:58:44;;;;;;;16.30;11.95;;;16.40;97.70;;;;;;5010875;28;20048;-69
2021/08/30 07:01:10;;;;;;;15.18;11.30;;;16.50;97.40;;;;;;5007248;28;20029;-68
2021/08/30 07:03:36;;;;;;;15.57;11.07;;;16.50;97.20;;;;;;5015961;28;20111;-68
2021/08/30 07:06:02;;;;;;;19.58;10.75;;;16.60;97.20;;;;;;5011395;28;20053;-68
2021/08/30 07:08:27;;;;;;;13.98;9.40;;;16.60;96.60;;;;;;5019027;28;20080;-68
2021/08/30 07:10:53;;;;;;;14.25;10.40;;;16.70;96.80;;;;;;5017467;28;20121;-68
2021/08/30 07:13:18;;;;;;;17.08;9.63;;;16.80;96.70;;;;;;5018594;28;20373;-68
2021/08/30 07:15:47;;;;;;;14.82;8.98;;;17.00;95.50;;;;;;5008065;28;20504;-65
2021/08/30 07:18:13;;;;;;;14.35;9.40;;;17.10;95.70;;;;;;5016377;28;20041;-65
2021/08/30 07:20:38;;;;;;;10.68;8.63;;;17.20;95.30;;;;;;5017564;28;20392;-64
2021/08/30 07:23:04;;;;;;;13.93;9.23;;;17.40;95.50;;;;;;5016995;28;20095;-65
2021/08/30 07:25:30;;;;;;;11.23;8.05;;;17.30;95.50;;;;;;5015128;28;22096;-65
2021/08/30 07:27:55;;;;;;;10.70;7.70;;;17.30;95.10;;;;;;5021770;28;20095;-65
2021/08/30 07:30:21;;;;;;;12.70;8.73;;;17.30;95.50;;;;;;5015906;28;20045;-65
2021/08/30 07:32:48;;;;;;;11.02;8.05;;;17.20;94.80;;;;;;5014443;28;20025;-65
2021/08/30 07:35:15;;;;;;;11.38;8.07;;;17.20;95.00;;;;;;5010361;28;20143;-64
2021/08/30 07:37:41;;;;;;;14.63;7.85;;;17.30;94.90;;;;;;5014250;28;20500;-65
2021/08/30 07:40:07;;;;;;;13.40;7.95;;;17.30;94.90;;;;;;5019962;28;20278;-65
2021/08/30 07:42:33;;;;;;;13.52;7.95;;;17.20;93.30;;;;;;5021701;28;20060;-64
2021/08/30 07:44:58;;;;;;;11.80;7.82;;;17.40;93.90;;;;;;5017866;28;20109;-64
2021/08/30 07:47:25;;;;;;;15.38;8.05;;;17.40;95.00;;;;;;5018936;28;20033;-65
2021/08/30 07:49:50;;;;;;;12.77;7.63;;;17.30;94.50;;;;;;5019348;28;20332;-65
2021/08/30 07:52:19;;;;;;;9.98;7.38;;;17.20;94.40;;;;;;5017827;28;20030;-65
2021/08/30 07:54:45;;;;;;;9.75;7.18;;;17.30;94.20;;;;;;5018943;28;20033;-64
2021/08/30 07:57:11;;;;;;;11.50;7.28;;;17.40;94.10;;;;;;5018514;28;20033;-65
2021/08/30 07:59:36;;;;;;;14.20;7.55;;;17.50;93.50;;;;;;5012218;28;20039;-65
2021/08/30 08:02:02;;;;;;;13.10;7.03;;;17.70;93.50;;;;;;5020066;28;20033;-64
2021/08/30 08:04:28;;;;;;;12.10;7.70;;;17.70;92.80;;;;;;5016499;28;20029;-65
2021/08/30 08:06:53;;;;;;;11.48;7.38;;;17.80;94.10;;;;;;5017126;28;20037;-65
2021/08/30 08:09:20;;;;;;;12.88;7.50;;;17.90;93.70;;;;;;5017593;28;20038;-64
2021/08/30 08:11:46;;;;;;;9.40;7.10;;;18.00;94.00;;;;;;5019139;28;20048;-64
2021/08/30 08:14:12;;;;;;;10.40;6.63;;;18.20;92.80;;;;;;5016096;28;20536;-64
2021/08/30 08:16:37;;;;;;;10.95;6.78;;;18.50;91.90;;;;;;5017089;28;20235;-64
2021/08/30 08:19:03;;;;;;;12.25;6.35;;;18.50;91.30;;;;;;5017340;28;20037;-64
2021/08/30 08:21:29;;;;;;;12.52;6.75;;;18.40;89.80;;;;;;5017429;28;20056;-64
2021/08/30 08:23:54;;;;;;;9.40;6.30;;;18.50;91.90;;;;;;5019270;28;20037;-65
2021/08/30 08:26:20;;;;;;;9.20;6.07;;;18.50;90.10;;;;;;5014042;28;20576;-65
2021/08/30 08:28:46;;;;;;;8.55;6.45;;;18.50;90.90;;;;;;5020231;28;20045;-64
2021/08/30 08:31:12;;;;;;;12.18;6.50;;;18.50;90.20;;;;;;5019558;28;20219;-65
2021/08/30 08:33:37;;;;;;;11.85;6.70;;;18.30;89.30;;;;;;5019587;28;20554;-65
2021/08/30 08:36:03;;;;;;;9.38;6.13;;;18.50;88.30;;;;;;5017958;28;20034;-65
2021/08/30 08:38:29;;;;;;;13.15;6.47;;;18.50;88.00;;;;;;5020326;28;20561;-65
2021/08/30 08:40:55;;;;;;;9.93;6.28;;;18.50;90.00;;;;;;5020286;28;20091;-65
2021/08/30 08:43:21;;;;;;;15.57;6.68;;;18.30;88.00;;;;;;5021738;28;20021;-65
2021/08/30 08:45:49;;;;;;;9.80;6.20;;;18.50;89.50;;;;;;5018966;28;20044;-64
2021/08/30 08:48:16;;;;;;;7.97;5.32;;;18.70;89.30;;;;;;5012485;28;20033;-65
2021/08/30 08:50:44;;;;;;;11.57;5.70;;;18.70;89.20;;;;;;5015342;28;20097;-64
2021/08/30 08:53:09;;;;;;;10.70;5.38;;;18.80;87.10;;;;;;5019703;28;20037;-65
2021/08/30 08:55:37;;;;;;;8.18;5.68;;;18.70;88.60;;;;;;5013319;28;20223;-64
2021/08/30 08:58:17;;;;;;;9.98;5.43;;;18.60;89.30;;;;;;5018917;28;20060;-65
2021/08/30 09:00:45;;;;;;;8.25;5.18;;;18.50;87.20;;;;;;5021783;28;20095;-65
2021/08/30 09:03:18;;;;;;;8.45;5.18;;;18.60;87.10;;;;;;5021045;28;20577;-65
2021/08/30 09:05:44;;;;;;;10.65;5.00;;;18.60;87.00;;;;;;5014695;28;20376;-64
2021/08/30 09:08:27;;;;;;;7.43;4.55;;;18.90;87.70;;;;;;5018982;28;20033;-67
2021/08/30 09:10:53;;;;;;;6.10;4.45;;;18.80;86.80;;;;;;5018969;28;20256;-67
2021/08/30 09:13:31;;;;;;;8.95;5.10;;;18.80;88.20;;;;;;5018978;28;20067;-67
2021/08/30 09:16:00;;;;;;;9.15;4.55;;;18.80;87.10;;;;;;5015770;28;20032;-66
2021/08/30 09:18:28;;;;;;;10.35;5.25;;;18.60;88.00;;;;;;5018589;28;20033;-67
2021/08/30 09:20:54;;;;;;;8.57;5.38;;;18.60;87.40;;;;;;5012462;28;20100;-67
2021/08/30 09:23:19;;;;;;;9.05;4.55;;;18.60;87.90;;;;;;5017931;28;20029;-68
2021/08/30 09:25:45;;;;;;;7.63;5.15;;;18.70;87.80;;;;;;5011431;28;20034;-68
2021/08/30 09:28:11;;;;;;;7.90;4.85;;;18.90;87.70;;;;;;5017788;28;20123;-68
2021/08/30 09:30:37;;;;;;;7.68;5.10;;;18.90;87.60;;;;;;5014110;28;20207;-67
2021/08/30 09:33:03;;;;;;;13.85;5.45;;;19.00;87.10;;;;;;5019448;28;20040;-68
2021/08/30 09:35:28;;;;;;;8.63;4.82;;;19.00;86.10;;;;;;5019885;28;20037;-68
2021/08/30 09:37:54;;;;;;;8.18;5.10;;;19.00;87.60;;;;;;5012838;28;20179;-67
2021/08/30 09:40:24;;;;;;;12.32;4.93;;;19.20;88.50;;;;;;5013830;28;20040;-68
2021/08/30 09:42:57;;;;;;;10.20;5.18;;;19.10;87.80;;;;;;5016863;28;20032;-68
2021/08/30 09:45:24;;;;;;;8.60;5.25;;;19.10;88.20;;;;;;5012428;28;20024;-68
2021/08/30 09:48:00;;;;;;;12.02;5.03;;;18.90;87.60;;;;;;5016019;28;20029;-67
2021/08/30 09:50:30;;;;;;;7.72;4.85;;;18.70;89.30;;;;;;5019404;28;20038;-67
2021/08/30 09:52:58;;;;;;;7.55;5.38;;;18.60;88.50;;;;;;5016611;28;20461;-67
2021/08/30 09:55:25;;;;;;;7.25;4.72;;;18.70;88.70;;;;;;5015354;28;20156;-68
2021/08/30 09:57:52;;;;;;;6.88;4.28;;;18.90;87.90;;;;;;5018954;28;20041;-68
2021/08/30 10:00:19;;;;;;;7.30;4.47;;;18.90;88.60;;;;;;5017062;28;20025;-68
2021/08/30 10:02:54;;;;;;;9.75;4.60;;;19.10;86.50;;;;;;5018629;28;20109;-68
2021/08/30 10:05:21;;;;;;;6.78;4.18;;;19.20;86.60;;;;;;5015382;28;20025;-68
2021/08/30 10:07:48;;;;;;;10.20;4.55;;;19.10;87.00;;;;;;5018068;28;20473;-68
2021/08/30 10:10:15;;;;;;;6.18;4.30;;;19.00;86.80;;;;;;5018470;28;20037;-68
2021/08/30 10:12:42;;;;;;;11.20;4.40;;;18.70;87.20;;;;;;5017570;28;20395;-68
2021/08/30 10:15:10;;;;;;;9.38;4.88;;;18.60;87.70;;;;;;5033605;28;20124;-68
2021/08/30 10:17:47;;;;;;;7.32;5.07;;;18.50;88.60;;;;;;5017549;28;20086;-68
2021/08/30 10:20:21;;;;;;;7.20;4.63;;;18.10;88.30;;;;;;5010500;28;20037;-68
2021/08/30 10:23:08;;;;;;;8.20;4.97;;;18.00;87.00;;;;;;5016581;28;20029;-68
2021/08/30 10:25:41;;;;;;;10.18;4.55;;;18.00;88.60;;;;;;5014952;28;20503;-68
2021/08/30 10:28:12;;;;;;;7.32;4.38;;;18.00;89.10;;;;;;5012460;28;20748;-68
2021/08/30 10:30:52;;;;;;;7.90;4.82;;;17.90;88.40;;;;;;5011842;28;20460;-68
2021/08/30 10:33:22;;;;;;;7.70;4.55;;;18.00;88.20;;;;;;5015425;28;20057;-68
2021/08/30 10:35:48;;;;;;;10.00;4.72;;;17.90;88.70;;;;;;5017248;28;20037;-67
2021/08/30 10:38:21;;;;;;;6.65;4.70;;;18.00;89.60;;;;;;5019098;28;20041;-67
2021/08/30 10:40:52;;;;;;;8.20;4.78;;;18.00;88.90;;;;;;5019226;28;20245;-65
2021/08/30 10:43:21;;;;;;;7.25;4.72;;;18.20;87.60;;;;;;5018118;28;20329;-66
2021/08/30 10:45:58;;;;;;;10.05;4.57;;;18.50;88.40;;;;;;5019175;28;20026;-66
2021/08/30 10:48:34;;;;;;;7.00;4.40;;;18.70;87.30;;;;;;5019383;28;20036;-65
2021/08/30 10:51:00;;;;;;;8.77;4.80;;;18.80;84.90;;;;;;5016225;28;20030;-64
2021/08/30 10:53:26;;;;;;;6.57;4.00;;;19.00;85.30;;;;;;5016665;28;20095;-64
2021/08/30 10:56:07;;;;;;;7.68;4.40;;;19.00;84.70;;;;;;5018152;28;20034;-64
2021/08/30 10:58:33;;;;;;;7.20;3.80;;;19.10;84.50;;;;;;5017043;28;20037;-64
2021/08/30 11:01:10;;;;;;;6.15;4.13;;;19.00;82.60;;;;;;5022294;28;20041;-64
2021/08/30 11:03:36;;;;;;;7.63;3.95;;;19.50;83.40;;;;;;5017935;28;20366;-64
2021/08/30 11:06:08;;;;;;;5.82;3.72;;;19.90;82.50;;;;;;5020064;28;20134;-65
2021/08/30 11:08:35;;;;;;;6.28;3.75;;;20.20;80.90;;;;;;5022250;28;20056;-65
2021/08/30 11:11:25;;;;;;;6.13;4.00;;;20.40;79.80;;;;;;5010202;28;20034;-65
2021/08/30 11:14:11;;;;;;;6.55;3.97;;;20.60;81.70;;;;;;5010786;28;20310;-65
2021/08/30 11:16:39;;;;;;;6.00;3.70;;;20.60;77.90;;;;;;5018947;28;20049;-64
2021/08/30 11:19:06;;;;;;;6.55;3.80;;;20.70;81.30;;;;;;5014218;28;20049;-64
2021/08/30 11:21:47;;;;;;;8.45;4.00;;;20.70;78.00;;;;;;5020627;28;20056;-64
2021/08/30 11:24:27;;;;;;;6.88;4.03;;;21.20;76.30;;;;;;5018690;28;20515;-64
2021/08/30 11:26:54;;;;;;;7.65;3.60;;;21.30;78.30;;;;;;5013219;28;20025;-64
2021/08/30 11:29:19;;;;;;;6.93;4.03;;;21.20;77.70;;;;;;5018229;28;21342;-64
2021/08/30 11:31:45;;;;;;;6.95;3.78;;;21.30;76.70;;;;;;5016399;28;20044;-64
2021/08/30 11:34:32;;;;;;;6.28;3.75;;;21.00;76.20;;;;;;5017012;28;20041;-64
2021/08/30 11:37:01;;;;;;;5.47;3.67;;;20.70;77.30;;;;;;5019887;28;20041;-69
2021/08/30 11:39:28;;;;;;;7.68;4.00;;;20.40;79.20;;;;;;5017039;28;20053;-72
2021/08/30 11:42:06;;;;;;;10.38;4.13;;;20.30;80.10;;;;;;5017389;28;20109;-70
2021/08/30 11:44:34;;;;;;;6.97;4.05;;;20.20;79.60;;;;;;5022179;28;20092;-68
2021/08/30 11:47:02;;;;;;;5.57;3.72;;;20.00;79.00;;;;;;5020391;28;20541;-69
2021/08/30 11:49:31;;;;;;;9.52;4.32;;;20.10;81.70;;;;;;5020545;28;20033;-68
2021/08/30 11:52:00;;;;;;;7.20;4.70;;;20.30;80.10;;;;;;5018410;28;20300;-68
2021/08/30 11:54:29;;;;;;;8.23;4.13;;;20.30;80.10;;;;;;5020709;28;20568;-66
2021/08/30 11:56:59;;;;;;;5.65;3.72;;;20.50;78.20;;;;;;5020383;28;20091;-66
2021/08/30 11:59:33;;;;;;;7.72;3.95;;;20.70;78.50;;;;;;5022474;28;20064;-67
2021/08/30 12:02:01;;;;;;;8.85;4.20;;;21.00;76.30;;;;;;5021450;28;20066;-66
2021/08/30 12:04:29;;;;;;;6.45;3.78;;;21.10;76.60;;;;;;5020743;28;20393;-67
2021/08/30 12:06:58;;;;;;;8.00;3.88;;;21.10;73.90;;;;;;5017867;28;20022;-66
2021/08/30 12:09:24;;;;;;;7.97;4.18;;;21.20;76.30;;;;;;5014094;28;20120;-66
2021/08/30 12:11:53;;;;;;;6.05;3.50;;;21.20;73.50;;;;;;5017186;28;20026;-66
2021/08/30 12:14:23;;;;;;;5.90;3.85;;;21.00;74.50;;;;;;5019907;28;20132;-66
2021/08/30 12:16:55;;;;;;;6.30;3.80;;;20.80;78.20;;;;;;5018924;28;20025;-67
2021/08/30 12:19:23;;;;;;;5.75;3.80;;;20.50;76.50;;;;;;5017388;28;20095;-67
2021/08/30 12:21:49;;;;;;;5.35;3.50;;;20.30;79.50;;;;;;5019623;28;20100;-66
2021/08/30 12:24:19;;;;;;;7.95;3.38;;;20.10;77.70;;;;;;5022205;28;20033;-67
2021/08/30 12:26:51;;;;;;;6.15;3.92;;;20.00;76.50;;;;;;5019929;28;20029;-67
2021/08/30 12:29:18;;;;;;;6.32;3.75;;;19.90;78.10;;;;;;5020832;28;20040;-67
2021/08/30 12:31:53;;;;;;;5.03;3.35;;;19.80;79.90;;;;;;5020456;28;20045;-67
2021/08/30 12:34:23;;;;;;;7.78;3.97;;;19.60;78.80;;;;;;5019325;28;20467;-66
2021/08/30 12:36:49;;;;;;;11.73;4.05;;;19.40;80.10;;;;;;5021473;28;20423;-67
2021/08/30 12:39:15;;;;;;;6.85;3.80;;;19.20;80.90;;;;;;5016007;28;20141;-67
2021/08/30 12:41:41;;;;;;;8.63;3.60;;;19.10;81.40;;;;;;5012874;28;20056;-66